Latest Weather Observations for Witchcliffe

IDW60801

Issued at 4:35 pm WST Sunday 26 October 2014 (issued every 30 minutes, with the page automatically refreshed every 10 minutes)

About weather observations | Map of weather stations | Latest weather observations for WA | Other Formats
Station Details ID: 009746 Name: WITCHCLIFFE Lat: -34.03 Lon: 115.10 Height: 80.0 m
Data from the previous 72 hours. | See also: Recent months at Witchcliffe
Date/Time
WST
Temp
°C
App
Temp
°C
Dew
Point
Rel
Hum
%
Delta-T
°C
Wind Press
QNH
hPa
Press
MSL
hPa
Rain
since 9 am
mm
Dir
 
Spd
km/h
Gust
km/h
Spd
kts
Gust
kts
26/04:30pm 17.6 13.8 7.6 52 5.0 SW 17 22 9 12 1023.1 1023.0 0.2
26/04:00pm 17.9 14.6 8.2 53 5.0 SW 15 22 8 12 1022.8 1022.7 0.2
26/03:30pm 18.2 14.4 9.0 55 4.8 SW 19 26 10 14 1022.8 1022.7 0.2
26/03:00pm 18.4 15.5 9.5 56 4.7 WSW 15 22 8 12 1022.6 1022.5 0.2
26/02:30pm 17.5 13.4 10.1 62 3.9 SSW 22 30 12 16 1022.7 1022.6 0.2
26/02:00pm 17.9 13.5 10.5 62 4.0 SSW 24 32 13 17 1022.9 1022.8 0.2
26/01:30pm 19.2 15.9 9.4 53 5.2 WSW 17 22 9 12 1023.0 1022.9 0.2
26/01:00pm 18.5 15.5 10.8 61 4.2 SW 17 20 9 11 1022.9 1022.8 0.2
26/12:30pm 17.5 13.9 9.7 60 4.1 SSW 19 26 10 14 1022.8 1022.7 0.2
26/12:00pm 18.5 15.1 9.3 55 4.8 SSW 17 22 9 12 1022.8 1022.7 0.2
26/11:30am 17.9 14.5 9.3 57 4.5 SW 17 30 9 16 1022.7 1022.6 0.0
26/11:00am 17.5 14.2 8.1 54 4.8 SSW 15 24 8 13 1022.7 1022.6 0.0
26/10:30am 17.6 13.2 7.4 51 5.1 WSW 20 26 11 14 1022.7 1022.6 0.0
26/10:00am 17.1 12.7 7.5 53 4.8 SSW 20 32 11 17 1022.7 1022.6 0.0
26/09:30am 17.0 13.2 8.9 59 4.2 SSW 19 28 10 15 1022.5 1022.4 0.0
26/09:00am 16.5 12.2 7.7 56 4.4 SSW 20 30 11 16 1022.3 1022.2 1.8
26/08:30am 17.0 13.1 8.7 58 4.3 SW 19 35 10 19 1021.8 1021.7 1.8
26/08:00am 16.5 12.8 10.1 66 3.4 SSW 20 30 11 16 1021.5 1021.4 1.8
26/07:30am 15.6 13.4 10.8 73 2.6 WSW 13 19 7 10 1021.1 1021.0 1.8
26/07:00am 16.2 13.7 11.2 72 2.7 SW 15 26 8 14 1020.8 1020.7 1.8
26/06:30am 14.4 13.0 11.0 80 1.8 SW 9 15 5 8 1020.2 1020.1 1.8
26/06:00am 13.9 11.1 11.4 85 1.3 SW 17 30 9 16 1019.9 1019.9 1.8
26/05:30am 14.0 11.3 10.4 79 1.9 SW 15 20 8 11 1019.4 1019.4 1.8
26/05:00am 14.5 12.3 10.7 78 2.0 WSW 13 20 7 11 1018.9 1018.9 1.8
26/04:30am 14.6 12.2 11.4 81 1.7 WSW 15 26 8 14 1018.8 1018.8 1.8
26/04:00am 14.1 12.1 12.8 92 0.7 WSW 15 32 8 17 1018.6 1018.6 1.8
26/03:30am 14.0 12.3 13.5 97 0.3 WSW 15 28 8 15 1018.5 1018.5 1.8
26/03:00am 14.2 12.8 13.4 95 0.4 WSW 13 24 7 13 1018.3 1018.3 1.4
26/02:30am 14.2 11.6 13.2 94 0.6 W 19 28 10 15 1018.2 1018.2 1.4
26/02:00am 15.2 12.5 11.8 80 1.8 W 17 28 9 15 1018.0 1018.0 0.8
26/01:30am 15.8 12.7 10.3 70 2.9 WNW 17 26 9 14 1018.0 1018.0 0.2
26/01:00am 15.4 13.1 10.6 73 2.5 W 13 20 7 11 1018.0 1018.0 0.2
26/12:30am 15.3 12.3 10.7 74 2.4 W 17 22 9 12 1018.3 1018.3 0.2
26/12:00am 15.0 12.5 11.2 78 2.0 WNW 15 24 8 13 1018.5 1018.5 0.2
 
Date/Time
WST
Temp
°C
App
Temp
°C
Dew
Point
Rel
Hum
%
Delta-T
°C
Wind Press
QNH
hPa
Press
MSL
hPa
Rain
since 9 am
mm
Dir
 
Spd
km/h
Gust
km/h
Spd
kts
Gust
kts
25/11:30pm 15.8 13.4 9.9 68 3.1 W 13 22 7 12 1018.4 1018.4 0.2
25/11:00pm 15.6 12.2 10.4 71 2.7 WNW 19 30 10 16 1018.4 1018.4 0.2
25/10:30pm 15.7 12.3 9.1 65 3.4 W 17 24 9 13 1018.4 1018.4 0.2
25/10:00pm 16.1 12.5 8.3 60 4.0 W 17 26 9 14 1018.5 1018.5 0.2
25/09:30pm 15.9 12.9 9.1 64 3.5 W 15 24 8 13 1018.6 1018.6 0.2
25/09:00pm 15.9 12.7 8.4 61 3.8 W 15 24 8 13 1018.8 1018.8 0.2
25/08:30pm 15.9 12.4 8.9 63 3.6 W 17 28 9 15 1018.9 1018.9 0.2
25/08:00pm 15.9 13.2 8.9 63 3.6 W 13 24 7 13 1018.5 1018.5 0.2
25/07:30pm 15.8 13.1 8.8 63 3.6 W 13 22 7 12 1018.1 1018.1 0.2
25/07:00pm 15.7 13.1 9.4 66 3.3 W 13 19 7 10 1017.9 1017.9 0.2
25/06:30pm 16.0 13.2 8.7 62 3.7 WNW 13 20 7 11 1017.5 1017.5 0.2
25/06:00pm 16.2 13.4 8.4 60 4.0 W 13 24 7 13 1017.6 1017.6 0.2
25/05:30pm 16.4 12.2 8.4 59 4.1 W 20 30 11 16 1017.4 1017.4 0.2
25/05:00pm 16.8 12.8 8.2 57 4.4 W 19 30 10 16 1017.1 1017.1 0.2
25/04:30pm 16.8 12.2 8.2 57 4.4 W 22 35 12 19 1016.9 1016.9 0.2
25/04:00pm 17.3 11.9 7.9 54 4.8 W 26 39 14 21 1016.8 1016.8 0.2
25/03:30pm 17.9 12.7 8.7 55 4.8 WNW 26 39 14 21 1016.7 1016.7 0.2
25/03:00pm 17.6 13.1 8.7 56 4.6 W 22 39 12 21 1016.6 1016.6 0.2
25/02:30pm 18.7 14.7 10.3 58 4.5 W 22 39 12 21 1016.4 1016.4 0.2
25/02:00pm 18.4 13.8 9.7 57 4.6 W 24 37 13 20 1016.3 1016.3 0.2
25/01:30pm 18.6 15.4 11.9 65 3.7 W 20 33 11 18 1016.6 1016.6 0.2
25/01:00pm 18.2 13.9 12.0 67 3.4 W 26 37 14 20 1016.6 1016.6 0.2
25/12:30pm 18.7 14.9 13.6 72 2.9 W 26 43 14 23 1016.4 1016.4 0.2
25/12:00pm 18.2 16.1 15.3 83 1.7 W 20 33 11 18 1016.3 1016.3 0.2
25/11:30am 17.1 15.3 16.1 94 0.6 W 20 30 11 16 1016.2 1016.2 0.2
25/11:00am 17.5 16.3 16.0 91 0.9 W 17 30 9 16 1016.3 1016.3 0.0
25/10:30am 17.4 15.7 16.3 93 0.7 WNW 20 30 11 16 1016.2 1016.2 0.0
25/10:00am 18.6 15.6 12.6 68 3.4 NW 20 46 11 25 1016.1 1016.1 0.0
25/09:30am 18.0 15.0 12.7 71 3.0 NW 20 30 11 16 1016.1 1016.1 0.0
25/09:00am 18.0 15.0 12.5 70 3.1 WNW 20 35 11 19 1016.0 1016.0 0.2
25/08:30am 17.9 14.4 12.1 69 3.2 WNW 22 32 12 17 1015.8 1015.8 0.2
25/08:00am 17.9 15.0 12.4 70 3.1 WNW 19 32 10 17 1015.8 1015.8 0.2
25/07:30am 17.7 15.7 12.6 72 2.8 WNW 15 20 8 11 1015.6 1015.6 0.2
25/07:00am 17.0 15.8 12.7 76 2.4 WNW 11 17 6 9 1015.6 1015.6 0.2
25/06:30am 15.4 14.8 12.2 81 1.8 NW 7 11 4 6 1015.4 1015.4 0.2
25/06:00am 14.7 13.6 12.0 84 1.5 WNW 9 13 5 7 1015.1 1015.1 0.2
25/05:30am 14.7 13.6 11.8 83 1.6 WNW 9 13 5 7 1014.9 1014.9 0.2
25/05:00am 14.8 13.9 12.7 87 1.2 WNW 9 15 5 8 1014.8 1014.8 0.2
25/04:30am 14.8 14.7 13.8 94 0.6 WNW 7 9 4 5 1014.5 1014.5 0.2
25/04:00am 15.3 15.6 15.1 99 0.1 NW 7 13 4 7 1014.4 1014.4 0.2
25/03:30am 15.5 15.5 15.3 99 0.1 W 9 15 5 8 1014.2 1014.2 0.2
25/03:00am 15.0 15.3 15.0 100 0.0 W 7 9 4 5 1014.2 1014.2 0.2
25/02:30am 14.1 15.0 14.1 100 0.0 N 2 7 1 4 1014.3 1014.3 0.2
25/02:00am 13.9 15.1 13.9 100 0.0 CALM 0 7 0 4 1014.3 1014.3 0.2
25/01:30am 13.0 13.9 13.0 100 0.0 CALM 0 0 0 0 1014.2 1014.2 0.2
25/01:00am 13.5 13.8 13.5 100 0.0 NNE 4 7 2 4 1014.3 1014.3 0.2
25/12:30am 13.5 14.5 13.3 99 0.1 CALM 0 0 0 0 1014.5 1014.5 0.2
25/12:00am 13.8 13.8 13.6 99 0.1 N 6 6 3 3 1014.7 1014.7 0.2
 
Date/Time
WST
Temp
°C
App
Temp
°C
Dew
Point
Rel
Hum
%
Delta-T
°C
Wind Press
QNH
hPa
Press
MSL
hPa
Rain
since 9 am
mm
Dir
 
Spd
km/h
Gust
km/h
Spd
kts
Gust
kts
24/11:30pm 13.9 15.1 13.7 99 0.1 CALM 0 0 0 0 1014.9 1014.9 0.2
24/11:00pm 14.0 15.2 13.8 99 0.1 CALM 0 0 0 0 1015.1 1015.1 0.2
24/10:30pm 14.3 15.6 14.1 99 0.1 CALM 0 6 0 3 1015.5 1015.5 0.2
24/10:00pm 14.0 14.1 13.8 99 0.1 N 6 9 3 5 1015.5 1015.5 0.2
24/09:30pm 14.4 15.7 14.2 99 0.1 CALM 0 0 0 0 1016.1 1016.1 0.2
24/09:00pm 14.3 15.6 14.1 99 0.1 CALM 0 0 0 0 1016.0 1016.0 0.2
24/08:30pm 14.6 15.9 14.0 96 0.3 CALM 0 0 0 0 1015.8 1015.8 0.2
24/08:00pm 14.8 16.0 13.7 93 0.6 CALM 0 0 0 0 1015.7 1015.7 0.2
24/07:30pm 15.4 16.7 14.1 92 0.7 CALM 0 6 0 3 1015.7 1015.7 0.2
24/07:00pm 15.7 15.7 13.5 87 1.2 NNE 6 7 3 4 1015.5 1015.5 0.2
24/06:30pm 17.0 16.6 13.1 78 2.2 NNW 7 9 4 5 1015.6 1015.6 0.2
24/06:00pm 17.7 16.6 13.0 74 2.6 NW 11 17 6 9 1015.7 1015.7 0.2
24/05:30pm 18.4 17.1 12.6 69 3.2 WNW 11 19 6 10 1015.6 1015.6 0.2
24/05:00pm 19.4 17.6 12.2 63 4.0 NW 13 20 7 11 1015.5 1015.5 0.2
24/04:30pm 19.3 16.3 12.1 63 4.0 NW 19 30 10 16 1015.5 1015.5 0.2
24/04:00pm 19.2 16.1 11.7 62 4.1 NW 19 26 10 14 1015.7 1015.7 0.2
24/03:30pm 19.7 16.9 11.2 58 4.7 NW 17 26 9 14 1015.6 1015.6 0.2
24/03:00pm 19.8 16.5 11.0 57 4.8 WNW 19 28 10 15 1015.6 1015.6 0.2
24/02:30pm 20.7 17.3 10.5 52 5.6 WNW 19 22 10 12 1015.6 1015.6 0.2
24/02:00pm 20.8 17.4 10.6 52 5.6 NW 19 24 10 13 1015.8 1015.8 0.2
24/01:30pm 19.8 17.0 11.3 58 4.7 NNW 17 22 9 12 1016.1 1016.1 0.2
24/01:00pm 19.6 17.1 11.1 58 4.7 N 15 24 8 13 1016.4 1016.4 0.2
24/12:30pm 19.6 17.6 11.4 59 4.5 NNW 13 20 7 11 1016.5 1016.5 0.2
24/12:00pm 20.0 16.7 11.7 59 4.6 NNE 20 28 11 15 1016.9 1016.9 0.2
24/11:30am 18.9 15.5 10.7 59 4.4 N 19 28 10 15 1017.2 1017.2 0.2
24/11:00am 19.3 16.7 12.1 63 4.0 N 17 22 9 12 1017.6 1017.6 0.0
24/10:30am 18.5 15.6 11.1 62 4.0 N 17 24 9 13 1017.9 1017.9 0.0
24/10:00am 18.6 16.6 12.6 68 3.4 N 15 22 8 12 1018.2 1018.2 0.0
24/09:30am 17.1 15.1 11.6 70 3.0 N 13 20 7 11 1018.3 1018.3 0.0
24/09:00am 17.0 15.4 12.7 76 2.4 ENE 13 19 7 10 1018.0 1018.0 0.0
24/08:30am 15.6 13.9 12.5 82 1.7 NE 13 22 7 12 1018.3 1018.3 0.0
24/08:00am 14.1 14.3 14.1 100 0.0 E 6 9 3 5 1018.5 1018.5 0.0
24/07:30am 13.5 13.5 13.5 100 0.0 E 6 9 3 5 1018.4 1018.4 0.0
24/07:00am 12.8 13.7 12.8 100 0.0 CALM 0 0 0 0 1018.1 1018.1 0.0
24/06:30am 12.2 12.9 12.2 100 0.0 CALM 0 0 0 0 1017.9 1017.9 0.0
24/06:00am 12.0 12.6 12.0 100 0.0 CALM 0 0 0 0 1018.1 1018.1 0.0
24/05:30am 12.0 12.6 12.0 100 0.0 CALM 0 0 0 0 1017.9 1017.9 0.0
24/05:00am 11.9 12.5 11.9 100 0.0 CALM 0 0 0 0 1018.0 1018.0 0.0
24/04:30am 11.4 11.8 11.4 100 0.0 CALM 0 0 0 0 1017.7 1017.7 0.0
24/04:00am 11.8 12.4 11.8 100 0.0 CALM 0 0 0 0 1017.9 1017.9 0.0
24/03:30am 12.0 12.6 12.0 100 0.0 CALM 0 0 0 0 1018.1 1018.1 0.0
24/03:00am 12.3 13.0 12.3 100 0.0 CALM 0 6 0 3 1018.4 1018.4 0.0
24/02:30am 12.5 13.3 12.5 100 0.0 CALM 0 6 0 3 1018.3 1018.3 0.0
24/02:00am 12.6 13.4 12.6 100 0.0 CALM 0 6 0 3 1018.5 1018.5 0.0
24/01:30am 12.9 12.7 12.9 100 0.0 E 6 9 3 5 1018.5 1018.5 0.0
24/01:00am 13.0 13.9 13.0 100 0.0 CALM 0 0 0 0 1018.6 1018.6 0.0
24/12:30am 12.9 13.8 12.9 100 0.0 CALM 0 6 0 3 1018.8 1018.8 0.0
24/12:00am 13.2 14.2 13.2 100 0.0 CALM 0 0 0 0 1018.8 1018.8 0.0
 
Date/Time
WST
Temp
°C
App
Temp
°C
Dew
Point
Rel
Hum
%
Delta-T
°C
Wind Press
QNH
hPa
Press
MSL
hPa
Rain
since 9 am
mm
Dir
 
Spd
km/h
Gust
km/h
Spd
kts
Gust
kts
23/11:30pm 13.2 14.2 13.2 100 0.0 CALM 0 0 0 0 1018.8 1018.8 0.0
23/11:00pm 12.8 13.7 12.8 100 0.0 CALM 0 0 0 0 1018.9 1018.9 0.0
23/10:30pm 12.4 13.1 12.2 99 0.1 CALM 0 0 0 0 1019.0 1019.0 0.0
23/10:00pm 11.9 12.4 11.7 99 0.1 CALM 0 0 0 0 1019.1 1019.1 0.0
23/09:30pm 12.5 13.2 12.3 99 0.1 CALM 0 0 0 0 1019.1 1019.1 0.0
23/09:00pm 12.9 13.7 12.7 99 0.1 CALM 0 0 0 0 1019.2 1019.2 0.0
23/08:30pm 13.9 13.4 13.7 99 0.1 S 9 11 5 6 1019.1 1019.1 0.0
23/08:00pm 14.4 14.0 14.2 99 0.1 S 9 13 5 7 1019.1 1019.1 0.0
23/07:30pm 14.5 14.4 13.9 96 0.3 SSE 7 11 4 6 1018.6 1018.6 0.0
23/07:00pm 14.6 14.2 13.0 90 0.9 SSE 7 13 4 7 1018.1 1018.1 0.0
23/06:30pm 15.3 14.1 12.8 85 1.4 SSW 11 15 6 8 1017.9 1017.9 0.0
23/06:00pm 16.1 14.3 13.2 83 1.6 SSW 15 22 8 12 1017.6 1017.6 0.0
23/05:30pm 16.3 14.3 13.8 85 1.4 SSW 17 24 9 13 1017.3 1017.3 0.0
23/05:00pm 17.2 15.1 12.5 74 2.6 SSW 15 20 8 11 1017.0 1017.0 0.0

Other Formats:

Comma delimited format used in spreadsheet applications
http://www.bom.gov.au/fwo/IDW60801/IDW60801.95641.axf

JavaScript Object Notation format (JSON) in row-major order
http://www.bom.gov.au/fwo/IDW60801/IDW60801.95641.json